Time;durP1;ratioP1;P1;durP2;ratioP2;P2;SDS_P1;SDS_P2;PMS_P1;PMS_P2;Temp;Humidity;BMP_temperature;BMP_pressure;BME280_temperature;BME280_humidity;BME280_pressure;Samples;Min_cycle;Max_cycle;Signal;HPM_P1;HPM_P2
2023/10/23 00:01:48;;;;;;;10.63;7.17;;;10.70;99.90;10.00;99783;;;;568243;249;24088;-83
2023/10/23 00:04:16;;;;;;;11.93;7.63;;;10.70;99.90;10.00;99784;;;;568703;248;24151;-75
2023/10/23 00:06:44;;;;;;;9.40;7.43;;;10.70;99.90;10.00;99783;;;;568696;248;24124;-81
2023/10/23 00:09:14;;;;;;;7.40;6.43;;;10.70;99.90;10.00;99788;;;;568428;248;24089;-80
2023/10/23 00:11:41;;;;;;;11.50;6.83;;;10.70;99.90;10.00;99782;;;;568096;248;24093;-81
2023/10/23 00:14:09;;;;;;;8.80;7.03;;;10.80;99.90;10.00;99793;;;;567868;248;24068;-81
2023/10/23 00:16:37;;;;;;;10.53;7.17;;;10.80;99.90;10.10;99789;;;;567680;248;25200;-82
2023/10/23 00:19:05;;;;;;;8.07;6.50;;;10.80;99.90;10.10;99788;;;;568112;248;24124;-81
2023/10/23 00:21:34;;;;;;;8.17;6.47;;;10.90;99.90;10.10;99800;;;;568011;249;24118;-79
2023/10/23 00:24:02;;;;;;;6.77;6.10;;;10.80;99.90;10.10;99796;;;;567875;249;24085;-81
2023/10/23 00:26:30;;;;;;;6.50;5.83;;;10.90;99.90;10.10;99799;;;;567909;249;24158;-81
2023/10/23 00:28:58;;;;;;;13.50;6.67;;;10.90;99.90;10.10;99808;;;;568492;249;24163;-81
2023/10/23 00:31:25;;;;;;;6.83;6.10;;;10.90;99.90;10.10;99811;;;;568503;249;24094;-82
2023/10/23 00:33:53;;;;;;;8.83;6.57;;;10.90;99.90;10.10;99825;;;;568066;246;24101;-82
2023/10/23 00:36:21;;;;;;;11.83;9.20;;;10.90;99.90;10.20;99824;;;;562932;249;35285;-84
2023/10/23 00:38:49;;;;;;;8.10;6.70;;;10.90;99.90;10.30;99827;;;;567956;249;24070;-80
2023/10/23 00:41:17;;;;;;;5.57;5.07;;;11.00;99.90;10.40;99839;;;;567531;249;24099;-82
2023/10/23 00:43:48;;;;;;;10.07;5.67;;;11.10;99.90;10.40;99830;;;;575877;246;24112;-82
2023/10/23 00:46:18;;;;;;;6.87;4.67;;;11.10;99.90;10.50;99839;;;;567056;249;24119;-79
2023/10/23 00:48:50;;;;;;;5.47;4.77;;;11.30;99.90;10.50;99837;;;;566088;249;24122;-79
2023/10/23 00:51:16;;;;;;;8.90;5.50;;;11.30;99.90;10.60;99844;;;;570612;249;24144;-83
2023/10/23 00:53:47;;;;;;;17.80;5.37;;;11.30;99.90;10.70;99847;;;;570919;248;24093;-82
2023/10/23 00:56:14;;;;;;;5.10;4.57;;;11.40;99.90;10.70;99845;;;;577334;247;24104;-81
2023/10/23 00:58:40;;;;;;;5.50;4.23;;;11.50;99.90;10.70;99839;;;;567909;249;24079;-82
2023/10/23 01:01:14;;;;;;;4.87;4.47;;;11.50;99.90;10.70;99845;;;;568229;249;24094;-82
2023/10/23 01:03:42;;;;;;;6.20;4.73;;;11.50;99.90;10.80;99845;;;;568002;249;24130;-82
2023/10/23 01:06:13;;;;;;;10.13;4.67;;;11.50;99.90;10.80;99850;;;;568142;249;24107;-78
2023/10/23 01:08:38;;;;;;;6.23;4.27;;;11.60;99.90;10.80;99853;;;;573116;249;24164;-78
2023/10/23 01:11:06;;;;;;;6.30;4.30;;;11.60;99.90;10.80;99847;;;;570873;249;24169;-78
2023/10/23 01:13:34;;;;;;;5.07;3.47;;;11.60;99.90;10.80;99853;;;;575880;246;24161;-79
2023/10/23 01:16:02;;;;;;;4.77;4.00;;;11.60;99.90;10.80;99853;;;;568669;248;24088;-78
2023/10/23 01:18:30;;;;;;;3.90;3.40;;;11.60;99.90;10.80;99859;;;;568312;248;24076;-79
2023/10/23 01:21:01;;;;;;;3.87;3.57;;;11.60;99.90;10.80;99861;;;;568444;248;24065;-83
2023/10/23 01:23:26;;;;;;;3.23;2.93;;;11.60;99.90;10.70;99865;;;;568208;248;24150;-81
2023/10/23 01:25:54;;;;;;;3.90;2.80;;;11.50;99.90;10.60;99860;;;;563966;248;24125;-79
2023/10/23 01:28:22;;;;;;;3.53;2.60;;;11.40;99.90;10.60;99862;;;;568067;248;24086;-81
2023/10/23 01:30:50;;;;;;;4.60;2.53;;;11.40;99.90;10.50;99856;;;;568323;248;24066;-80
2023/10/23 01:33:18;;;;;;;5.43;2.37;;;11.30;99.90;10.30;99863;;;;568092;249;24096;-81
2023/10/23 01:35:46;;;;;;;2.93;2.63;;;11.00;99.90;10.20;99865;;;;567951;249;24100;-79
2023/10/23 01:38:18;;;;;;;4.00;2.50;;;10.90;99.90;10.10;99862;;;;568358;249;25191;-78
2023/10/23 01:40:43;;;;;;;2.70;2.50;;;10.90;99.90;10.00;99869;;;;585506;244;24095;-80
2023/10/23 01:43:11;;;;;;;3.83;2.70;;;10.80;99.90;9.90;99869;;;;568419;248;24078;-77
2023/10/23 01:45:39;;;;;;;5.10;2.57;;;10.70;99.90;9.80;99863;;;;568243;249;24092;-79
2023/10/23 01:48:07;;;;;;;3.27;2.90;;;10.60;99.90;9.80;99861;;;;568032;249;24102;-80
2023/10/23 01:50:36;;;;;;;4.13;3.33;;;10.60;99.90;9.80;99862;;;;568412;249;24131;-81
2023/10/23 01:53:02;;;;;;;3.47;2.53;;;10.60;99.90;9.90;99876;;;;567648;249;24081;-81
2023/10/23 01:55:30;;;;;;;2.67;2.47;;;10.60;99.90;10.00;99862;;;;567657;249;24128;-81
2023/10/23 01:57:58;;;;;;;3.10;2.80;;;10.70;99.90;10.00;99867;;;;567710;249;24107;-82
2023/10/23 02:00:26;;;;;;;2.53;2.33;;;10.70;99.90;10.00;99866;;;;568209;249;24127;-81
2023/10/23 02:02:55;;;;;;;2.83;2.63;;;10.80;99.90;10.00;99868;;;;567955;249;24096;-79
2023/10/23 02:05:22;;;;;;;2.87;2.40;;;10.80;99.90;10.00;99869;;;;567652;249;24150;-80
2023/10/23 02:07:50;;;;;;;2.60;2.40;;;10.80;99.90;10.10;99867;;;;567737;249;24174;-79
2023/10/23 02:10:18;;;;;;;2.47;2.30;;;10.80;99.90;10.10;99867;;;;567438;249;24137;-82
2023/10/23 02:12:46;;;;;;;2.60;2.40;;;10.90;99.90;10.10;99861;;;;567356;249;24066;-81
2023/10/23 02:15:14;;;;;;;4.10;2.60;;;10.90;99.90;10.10;99866;;;;576192;247;24150;-79
2023/10/23 02:17:42;;;;;;;3.13;2.73;;;10.90;99.90;10.10;99862;;;;567587;249;24123;-78
2023/10/23 02:20:13;;;;;;;4.73;2.30;;;10.90;99.90;10.10;99870;;;;567596;249;24082;-78
2023/10/23 02:22:38;;;;;;;3.67;2.73;;;10.90;99.90;10.10;99877;;;;580949;245;24149;-81
2023/10/23 02:25:10;;;;;;;3.03;2.30;;;10.90;99.90;10.10;99875;;;;566045;249;24128;-79
2023/10/23 02:27:38;;;;;;;5.50;2.70;;;10.90;99.90;10.10;99876;;;;562221;249;24169;-78
2023/10/23 02:30:05;;;;;;;5.40;2.80;;;10.90;99.90;10.10;99876;;;;568699;249;24088;-81
2023/10/23 02:32:30;;;;;;;3.43;1.87;;;10.90;99.90;10.10;99880;;;;568312;249;24127;-79
2023/10/23 02:34:58;;;;;;;2.73;2.53;;;10.90;99.90;10.10;99873;;;;568759;249;25252;-79
2023/10/23 02:37:29;;;;;;;3.07;2.37;;;10.90;99.90;10.20;99877;;;;567829;248;24132;-82
2023/10/23 02:39:57;;;;;;;4.67;2.30;;;10.90;99.90;10.20;99876;;;;567636;248;24108;-79
2023/10/23 02:42:22;;;;;;;2.57;2.43;;;10.90;99.90;10.20;99878;;;;567584;248;24090;-77
2023/10/23 02:44:50;;;;;;;6.00;3.37;;;11.00;99.90;10.20;99878;;;;567768;249;24081;-78
2023/10/23 02:47:18;;;;;;;2.50;2.33;;;11.00;99.90;10.20;99882;;;;576499;248;24133;-79
2023/10/23 02:49:51;;;;;;;3.07;2.70;;;11.00;99.90;10.20;99875;;;;568420;249;24135;-80
2023/10/23 02:52:16;;;;;;;3.00;2.60;;;11.00;99.90;10.20;99885;;;;568171;249;24082;-77
2023/10/23 02:54:43;;;;;;;2.67;2.47;;;10.90;99.90;10.20;99875;;;;565705;249;24074;-79
2023/10/23 02:57:11;;;;;;;3.23;2.97;;;11.00;99.90;10.10;99878;;;;568175;249;24111;-82
2023/10/23 02:59:46;;;;;;;3.33;2.77;;;10.90;99.90;10.20;99876;;;;568051;249;24107;-80
2023/10/23 03:02:08;;;;;;;2.70;2.40;;;11.00;99.90;10.20;99877;;;;576310;246;24082;-78
2023/10/23 03:04:36;;;;;;;4.53;2.60;;;11.00;99.90;10.20;99880;;;;567315;249;24136;-78
2023/10/23 03:07:07;;;;;;;2.70;2.50;;;10.90;99.90;10.20;99871;;;;567180;249;24093;-79
2023/10/23 03:09:32;;;;;;;3.10;2.80;;;11.00;99.90;10.20;99883;;;;567355;249;24098;-80
2023/10/23 03:12:00;;;;;;;3.40;2.70;;;11.00;99.90;10.20;99879;;;;566813;249;24085;-81
2023/10/23 03:14:27;;;;;;;5.37;4.23;;;11.00;99.90;10.20;99881;;;;562539;249;35213;-79
2023/10/23 03:16:55;;;;;;;3.63;3.33;;;10.90;99.90;10.20;99874;;;;567823;249;24112;-79
2023/10/23 03:19:25;;;;;;;6.50;2.90;;;11.00;99.90;10.20;99873;;;;567786;249;24120;-83
2023/10/23 03:21:51;;;;;;;3.33;2.77;;;11.00;99.90;10.20;99875;;;;567732;246;24096;-79
2023/10/23 03:24:22;;;;;;;9.90;2.83;;;11.00;99.90;10.20;99878;;;;567321;247;24134;-79
2023/10/23 03:26:47;;;;;;;2.70;2.37;;;11.00;99.90;10.20;99877;;;;565349;247;24108;-82
2023/10/23 03:29:15;;;;;;;6.63;2.53;;;11.00;99.90;10.20;99881;;;;567337;249;24076;-81
2023/10/23 03:31:44;;;;;;;5.27;2.47;;;11.00;99.90;10.20;99890;;;;567557;249;24139;-81
2023/10/23 03:34:11;;;;;;;2.00;1.90;;;10.90;99.90;10.10;99883;;;;567375;249;24108;-81
2023/10/23 03:36:39;;;;;;;6.23;2.20;;;10.90;99.90;10.10;99889;;;;567282;249;24093;-80
2023/10/23 03:39:07;;;;;;;4.77;2.90;;;10.90;99.90;10.10;99893;;;;567440;248;24142;-81
2023/10/23 03:41:35;;;;;;;3.30;2.50;;;10.90;99.90;10.00;99902;;;;568403;248;24096;-81
2023/10/23 03:44:04;;;;;;;2.77;2.57;;;10.80;99.90;10.00;99909;;;;568228;248;24077;-82
2023/10/23 03:46:31;;;;;;;2.10;2.00;;;10.80;99.90;9.80;99900;;;;571228;245;24094;-83
2023/10/23 03:48:59;;;;;;;3.27;2.23;;;10.60;99.90;9.70;99916;;;;577476;246;24158;-82
2023/10/23 03:51:27;;;;;;;3.50;3.20;;;10.50;99.90;9.50;99918;;;;567839;248;24092;-84
2023/10/23 03:53:55;;;;;;;4.40;3.03;;;10.40;99.90;9.40;99912;;;;567951;248;24099;-83
2023/10/23 03:56:23;;;;;;;6.47;2.93;;;10.20;99.90;9.30;99916;;;;567876;249;24085;-81
2023/10/23 03:58:51;;;;;;;2.80;2.60;;;10.10;99.90;9.20;99923;;;;567600;249;24077;-78
2023/10/23 04:01:22;;;;;;;3.77;3.07;;;10.00;99.90;9.10;99925;;;;567525;249;25126;-79
2023/10/23 04:03:46;;;;;;;3.67;3.37;;;9.90;99.90;9.00;99923;;;;567384;249;24106;-79
2023/10/23 04:06:14;;;;;;;6.90;3.63;;;9.80;99.90;8.90;99920;;;;566032;247;24093;-80
2023/10/23 04:08:42;;;;;;;3.43;3.13;;;9.70;99.90;8.80;99918;;;;566096;249;24139;-81
2023/10/23 04:11:10;;;;;;;5.57;3.60;;;9.70;99.90;8.80;99918;;;;566091;249;24187;-82
2023/10/23 04:13:38;;;;;;;5.63;3.77;;;9.60;99.90;8.70;99920;;;;566777;247;24145;-82
2023/10/23 04:16:06;;;;;;;8.77;4.20;;;9.50;99.90;8.60;99932;;;;565992;249;24115;-78
2023/10/23 04:18:35;;;;;;;4.40;4.00;;;9.40;99.90;8.60;99927;;;;566216;249;24169;-83
2023/10/23 04:21:09;;;;;;;4.23;3.30;;;9.30;99.90;8.50;99933;;;;566076;247;24108;-82
2023/10/23 04:23:36;;;;;;;5.40;4.80;;;9.30;99.90;8.40;99928;;;;567768;249;24118;-82
2023/10/23 04:26:01;;;;;;;5.63;3.87;;;9.20;99.90;8.30;99937;;;;567611;249;24153;-80
2023/10/23 04:28:33;;;;;;;15.30;5.60;;;9.00;99.90;8.20;99941;;;;564045;249;24101;-81
2023/10/23 04:30:58;;;;;;;12.20;6.00;;;9.00;99.90;8.10;99935;;;;566140;249;24107;-82
2023/10/23 04:33:29;;;;;;;9.17;5.80;;;8.90;99.90;8.10;99942;;;;565996;249;24079;-84
2023/10/23 04:35:54;;;;;;;9.23;6.67;;;8.90;99.90;8.00;99944;;;;565891;249;24092;-83
2023/10/23 04:38:26;;;;;;;7.73;6.47;;;8.80;99.90;7.90;99939;;;;566192;249;24111;-79
2023/10/23 04:40:54;;;;;;;8.70;4.87;;;8.80;99.90;7.90;99937;;;;567362;249;24163;-83
2023/10/23 04:43:22;;;;;;;8.40;6.10;;;8.70;99.90;7.90;99941;;;;566000;249;24090;-82
2023/10/23 04:45:48;;;;;;;8.00;6.73;;;8.70;99.90;7.80;99929;;;;567428;249;24099;-81
2023/10/23 04:48:19;;;;;;;8.77;6.77;;;8.60;99.90;7.70;99938;;;;576180;247;24154;-81
2023/10/23 04:50:43;;;;;;;6.83;6.23;;;8.50;99.90;7.70;99939;;;;566589;248;24100;-81
2023/10/23 04:53:11;;;;;;;8.77;6.00;;;8.50;99.90;7.70;99942;;;;567213;248;24111;-81
2023/10/23 04:55:42;;;;;;;9.17;7.03;;;8.50;99.90;7.60;99938;;;;566842;248;24088;-79
2023/10/23 04:58:10;;;;;;;8.27;7.33;;;8.50;99.90;7.60;99945;;;;566386;248;24096;-82
2023/10/23 05:00:35;;;;;;;7.07;6.37;;;8.40;99.90;7.60;99949;;;;567906;248;24105;-82
2023/10/23 05:03:07;;;;;;;10.53;7.93;;;8.40;99.90;7.70;99954;;;;567978;248;24115;-82
2023/10/23 05:05:31;;;;;;;9.27;7.27;;;8.40;99.90;7.70;99967;;;;568135;248;24146;-82
2023/10/23 05:07:59;;;;;;;10.90;6.93;;;8.40;99.90;7.60;99967;;;;567924;249;24101;-79
2023/10/23 05:10:26;;;;;;;8.67;7.03;;;8.40;99.90;7.70;99973;;;;576095;246;24106;-83
2023/10/23 05:12:56;;;;;;;7.27;6.50;;;8.40;99.90;7.60;99979;;;;566586;249;24079;-80
2023/10/23 05:15:24;;;;;;;7.60;6.90;;;8.40;99.90;7.60;99981;;;;565917;249;24099;-82
2023/10/23 05:17:52;;;;;;;10.90;6.33;;;8.50;99.90;7.70;99983;;;;565718;249;24129;-79
2023/10/23 05:20:20;;;;;;;7.60;6.10;;;8.50;99.90;7.80;99984;;;;566375;249;24128;-81
2023/10/23 05:22:47;;;;;;;7.00;5.90;;;8.50;99.90;7.90;99991;;;;565915;249;24099;-81
2023/10/23 05:25:15;;;;;;;6.37;5.27;;;8.70;99.90;8.00;100004;;;;566495;249;24078;-81
2023/10/23 05:27:43;;;;;;;5.10;4.07;;;8.80;99.90;8.10;100001;;;;567882;249;24125;-81
2023/10/23 05:30:11;;;;;;;7.47;5.17;;;8.90;99.90;8.20;100003;;;;576939;248;24229;-81
2023/10/23 05:32:39;;;;;;;5.57;4.33;;;8.90;99.90;8.20;99998;;;;567970;249;24102;-83
2023/10/23 05:35:10;;;;;;;5.17;4.67;;;9.00;99.90;8.20;99999;;;;565759;249;24105;-80
2023/10/23 05:37:35;;;;;;;6.23;4.67;;;9.00;99.90;8.20;100008;;;;575730;246;24166;-80
2023/10/23 05:40:06;;;;;;;9.03;4.43;;;9.00;99.90;8.20;100009;;;;565664;249;24077;-84
2023/10/23 05:42:31;;;;;;;6.17;4.50;;;9.00;99.90;8.20;100022;;;;567321;249;24159;-79
2023/10/23 05:45:02;;;;;;;6.00;4.57;;;9.00;99.90;8.20;100020;;;;565696;249;24099;-82
2023/10/23 05:47:28;;;;;;;11.40;4.60;;;9.00;99.90;8.20;100023;;;;563759;247;24114;-84
2023/10/23 05:49:54;;;;;;;4.23;3.83;;;9.00;99.90;8.20;100018;;;;565790;249;24095;-82
2023/10/23 05:52:22;;;;;;;5.53;4.93;;;9.00;99.90;8.30;100024;;;;566061;249;24085;-79
2023/10/23 05:54:50;;;;;;;9.10;4.83;;;9.10;99.90;8.30;100026;;;;576206;246;24170;-82
2023/10/23 05:57:18;;;;;;;6.63;4.43;;;9.00;99.90;8.30;100035;;;;565694;249;24101;-80
2023/10/23 05:59:46;;;;;;;8.50;4.50;;;9.10;99.90;8.30;100024;;;;566141;249;24095;-82
2023/10/23 06:02:15;;;;;;;7.77;4.27;;;9.10;99.90;8.20;100038;;;;566848;248;24128;-82
2023/10/23 06:04:45;;;;;;;5.60;4.47;;;9.10;99.90;8.20;100034;;;;566645;248;24261;-82
2023/10/23 06:07:13;;;;;;;8.23;4.90;;;9.10;99.90;8.20;100040;;;;566563;248;24111;-78
2023/10/23 06:09:41;;;;;;;8.37;4.20;;;9.00;99.90;8.20;100040;;;;566360;248;26301;-83
2023/10/23 06:12:14;;;;;;;5.27;3.90;;;9.00;99.90;8.20;100053;;;;566876;248;24086;-82
2023/10/23 06:14:36;;;;;;;9.97;4.17;;;9.00;99.90;8.10;100045;;;;576184;248;24098;-79
2023/10/23 06:17:04;;;;;;;8.23;4.83;;;8.90;99.90;8.20;100055;;;;566600;248;24226;-78
2023/10/23 06:19:36;;;;;;;9.80;4.70;;;8.90;99.90;8.10;100053;;;;576604;246;24133;-83
2023/10/23 06:22:00;;;;;;;7.27;4.10;;;8.90;99.90;8.20;100053;;;;576025;247;24134;-79
2023/10/23 06:24:28;;;;;;;10.63;4.67;;;8.90;99.90;8.10;100053;;;;566025;249;24165;-78
2023/10/23 06:26:56;;;;;;;6.17;5.17;;;8.90;99.90;8.10;100055;;;;566365;249;24096;-82
2023/10/23 06:29:24;;;;;;;5.17;4.43;;;8.90;99.90;8.10;100061;;;;566287;249;24121;-79
2023/10/23 06:31:52;;;;;;;8.17;4.37;;;8.90;99.90;8.00;100057;;;;566334;249;24127;-78
2023/10/23 06:34:20;;;;;;;6.03;4.17;;;8.80;99.90;8.00;100063;;;;566457;248;24137;-82
2023/10/23 06:36:48;;;;;;;9.13;6.10;;;8.80;99.90;8.00;100058;;;;561475;249;35341;-80
2023/10/23 06:39:17;;;;;;;6.87;4.43;;;8.90;99.90;8.10;100062;;;;566155;249;24096;-82
2023/10/23 06:41:45;;;;;;;6.82;6.10;;;8.80;99.90;8.10;100069;;;;561848;249;35323;-81
2023/10/23 06:44:13;;;;;;;9.57;4.67;;;8.90;99.90;8.10;100065;;;;576258;247;24103;-84
2023/10/23 06:46:41;;;;;;;6.33;3.80;;;8.90;99.90;8.20;100067;;;;566071;249;24159;-82
2023/10/23 06:49:09;;;;;;;6.47;3.80;;;9.00;99.90;8.30;100064;;;;566124;249;24165;-78
2023/10/23 06:51:37;;;;;;;5.37;3.77;;;9.00;99.90;8.30;100084;;;;570949;248;24104;-82
2023/10/23 06:54:05;;;;;;;10.10;3.63;;;9.10;99.90;8.40;100064;;;;565862;249;24121;-78
2023/10/23 06:56:33;;;;;;;5.97;3.93;;;9.10;99.90;8.40;100068;;;;568081;249;25178;-80
2023/10/23 06:59:01;;;;;;;5.13;4.10;;;9.20;99.90;8.50;100067;;;;576181;247;24096;-80
2023/10/23 07:01:29;;;;;;;5.63;3.60;;;9.30;99.90;8.60;100066;;;;566523;249;24089;-79
2023/10/23 07:03:57;;;;;;;4.57;4.20;;;9.40;99.90;8.70;100073;;;;566060;249;24073;-79
2023/10/23 07:06:26;;;;;;;6.03;4.63;;;10.10;99.90;9.40;100065;;;;566249;249;24092;-78
2023/10/23 07:08:54;;;;;;;5.03;4.57;;;11.70;99.90;11.30;100078;;;;567626;249;24122;-77
2023/10/23 07:11:22;;;;;;;8.23;5.17;;;11.70;99.90;13.50;100079;;;;567713;249;24152;-79
2023/10/23 07:13:50;;;;;;;6.10;4.57;;;13.80;99.90;15.20;100091;;;;568811;248;24064;-79
2023/10/23 07:16:18;;;;;;;9.00;4.10;;;15.50;99.90;17.00;100096;;;;568596;248;24136;-80
2023/10/23 07:18:46;;;;;;;3.37;3.17;;;17.30;99.90;18.90;100104;;;;568436;248;24086;-78
2023/10/23 07:21:14;;;;;;;4.40;2.70;;;19.20;99.90;20.30;100105;;;;568499;248;24076;-79
2023/10/23 07:23:45;;;;;;;5.00;3.10;;;20.80;99.90;21.60;100106;;;;576539;248;24093;-82
2023/10/23 07:26:14;;;;;;;3.37;3.03;;;22.10;99.90;22.70;100104;;;;567573;248;23113;-80
2023/10/23 07:28:43;;;;;;;4.10;3.00;;;23.20;99.90;23.60;100097;;;;564291;246;24142;-81
2023/10/23 07:31:09;;;;;;;3.10;2.80;;;25.10;99.90;24.40;100098;;;;567668;249;24080;-82
2023/10/23 07:33:37;;;;;;;6.10;3.00;;;25.00;99.90;25.30;100099;;;;564033;249;23104;-84
2023/10/23 07:36:11;;;;;;;11.47;3.13;;;26.00;99.90;26.00;100099;;;;568132;249;23082;-81
2023/10/23 07:38:36;;;;;;;8.27;2.70;;;27.50;99.90;26.70;100104;;;;567534;249;23100;-83
2023/10/23 07:41:04;;;;;;;5.33;3.10;;;27.50;99.90;27.40;100108;;;;567850;249;23182;-81
2023/10/23 07:43:32;;;;;;;2.90;2.70;;;28.10;94.00;27.90;100111;;;;567876;249;24074;-82
2023/10/23 07:46:06;;;;;;;4.32;2.67;;;28.70;90.10;28.10;100112;;;;567891;249;24098;-81
2023/10/23 07:48:34;;;;;;;3.67;2.70;;;29.00;90.20;28.60;100116;;;;567724;249;24096;-81
2023/10/23 07:51:06;;;;;;;3.47;2.75;;;29.80;79.60;28.90;100119;;;;567715;249;24150;-81
2023/10/23 07:53:35;;;;;;;4.15;2.47;;;30.10;77.40;29.30;100128;;;;567556;249;24134;-80
2023/10/23 07:56:03;;;;;;;2.47;2.28;;;30.40;73.30;29.50;100132;;;;567143;249;23118;-80
2023/10/23 07:58:28;;;;;;;4.82;2.70;;;30.30;73.10;29.80;100132;;;;567544;249;24113;-81
2023/10/23 08:01:04;;;;;;;2.67;2.25;;;30.60;68.10;29.90;100134;;;;567668;249;23106;-80
2023/10/23 08:03:36;;;;;;;3.28;2.20;;;30.90;66.90;30.40;100133;;;;566301;249;23107;-80
2023/10/23 08:06:00;;;;;;;3.33;2.72;;;31.30;64.30;30.20;100147;;;;567106;249;24092;-81
2023/10/23 08:08:28;;;;;;;3.67;2.53;;;31.30;64.00;29.50;100143;;;;567256;249;24153;-80
2023/10/23 08:10:56;;;;;;;9.02;3.10;;;30.80;64.80;28.60;100144;;;;567239;249;24082;-80
2023/10/23 08:13:24;;;;;;;4.28;3.08;;;30.00;64.70;29.10;100150;;;;567137;249;23148;-81
2023/10/23 08:15:53;;;;;;;5.07;2.47;;;30.00;65.30;29.70;100154;;;;567480;249;23156;-80
2023/10/23 08:18:23;;;;;;;4.22;2.85;;;30.50;65.30;30.30;100155;;;;567298;249;23122;-80
2023/10/23 08:20:49;;;;;;;5.65;2.58;;;31.20;60.60;30.40;100156;;;;567160;249;23102;-81
2023/10/23 08:23:17;;;;;;;4.28;2.97;;;31.60;59.80;30.60;100164;;;;567280;249;23135;-81
2023/10/23 08:25:45;;;;;;;2.90;2.45;;;31.50;59.70;29.70;100170;;;;577560;247;23111;-80
2023/10/23 08:28:13;;;;;;;6.22;2.70;;;31.00;60.50;29.10;100177;;;;568279;248;23094;-80
2023/10/23 08:30:41;;;;;;;4.18;2.55;;;30.50;60.10;27.90;100171;;;;568447;248;23095;-82
2023/10/23 08:33:09;;;;;;;6.05;2.60;;;29.50;60.40;26.80;100173;;;;568259;248;23131;-80
2023/10/23 08:35:37;;;;;;;2.83;2.35;;;28.50;63.00;25.60;100179;;;;568203;248;23104;-81
2023/10/23 08:38:05;;;;;;;4.40;2.83;;;27.30;65.40;24.90;100170;;;;568338;248;23122;-81
2023/10/23 08:40:33;;;;;;;5.40;2.33;;;25.60;69.40;24.20;100169;;;;564015;248;23135;-80
2023/10/23 08:43:01;;;;;;;6.17;2.40;;;25.50;69.30;24.80;100175;;;;567869;249;23122;-80
2023/10/23 08:45:33;;;;;;;3.50;2.40;;;25.60;70.80;26.20;100175;;;;567857;249;23192;-80
2023/10/23 08:47:58;;;;;;;6.53;2.13;;;27.90;66.00;27.50;100171;;;;567651;249;23124;-82
2023/10/23 08:50:26;;;;;;;3.22;2.37;;;27.90;66.00;28.50;100178;;;;567838;249;23094;-80
2023/10/23 08:52:59;;;;;;;5.25;2.62;;;29.10;64.00;29.60;100182;;;;567856;249;23092;-81
2023/10/23 08:55:27;;;;;;;3.20;2.45;;;30.20;60.90;30.20;100178;;;;566639;249;23115;-80
2023/10/23 08:57:54;;;;;;;3.08;2.55;;;31.00;59.20;30.60;100186;;;;563602;249;23158;-81
2023/10/23 09:00:25;;;;;;;3.20;2.45;;;31.60;58.10;30.60;100190;;;;567787;249;24117;-81
2023/10/23 09:02:53;;;;;;;3.30;2.30;;;31.80;57.40;30.80;100177;;;;567791;249;23120;-81
2023/10/23 09:05:21;;;;;;;4.20;2.87;;;32.00;56.80;30.80;100179;;;;567781;249;23101;-81
2023/10/23 09:07:49;;;;;;;2.47;1.90;;;32.00;55.90;30.10;100188;;;;567796;249;23141;-80
2023/10/23 09:10:17;;;;;;;5.03;2.10;;;31.40;56.40;28.80;100189;;;;567469;245;23109;-80
2023/10/23 09:12:45;;;;;;;2.35;1.85;;;30.10;57.70;27.30;100185;;;;567481;249;23128;-81
2023/10/23 09:15:16;;;;;;;1.80;1.70;;;28.60;58.70;25.60;100195;;;;567454;249;23111;-81
2023/10/23 09:17:43;;;;;;;5.83;2.37;;;27.20;60.70;23.80;100185;;;;567154;249;24148;-81
2023/10/23 09:20:24;;;;;;;4.03;2.10;;;25.70;63.80;22.60;100186;;;;567381;249;23127;-80
2023/10/23 09:22:52;;;;;;;1.90;1.80;;;24.30;67.10;21.60;100191;;;;567504;249;23185;-81
2023/10/23 09:25:22;;;;;;;2.77;2.07;;;23.10;71.00;20.80;100187;;;;567440;249;24081;-80
2023/10/23 09:27:50;;;;;;;4.87;1.93;;;22.20;74.90;19.90;100184;;;;566508;249;24086;-80
2023/10/23 09:30:24;;;;;;;7.43;2.20;;;21.20;77.30;19.20;100178;;;;567309;249;24091;-80
2023/10/23 09:32:55;;;;;;;6.60;2.50;;;19.80;83.40;18.60;100182;;;;567424;249;25148;-81
2023/10/23 09:35:23;;;;;;;12.77;2.97;;;19.80;83.40;18.10;100189;;;;568119;247;23103;-80
2023/10/23 09:37:55;;;;;;;15.10;2.93;;;19.30;86.40;17.70;100188;;;;569648;249;24107;-80
2023/10/23 09:40:19;;;;;;;6.43;2.47;;;18.80;88.80;17.30;100184;;;;568736;249;24136;-80
2023/10/23 09:42:47;;;;;;;5.93;2.20;;;18.40;90.20;16.90;100182;;;;568293;248;24074;-80
2023/10/23 09:45:15;;;;;;;1.67;1.57;;;17.70;92.10;16.60;100180;;;;568004;248;24093;-81
2023/10/23 09:47:44;;;;;;;3.93;3.13;;;17.40;93.20;16.30;100182;;;;566382;248;24088;-80
2023/10/23 09:50:15;;;;;;;2.57;2.13;;;17.40;93.20;16.10;100184;;;;563926;249;24136;-79
2023/10/23 09:52:40;;;;;;;4.90;1.53;;;17.10;94.20;15.80;100182;;;;568202;249;24117;-82
2023/10/23 09:55:11;;;;;;;3.83;1.50;;;16.80;94.90;15.50;100178;;;;576931;244;24097;-81
2023/10/23 09:57:42;;;;;;;3.67;1.73;;;16.50;96.00;15.30;100179;;;;577189;245;24162;-80
2023/10/23 10:00:16;;;;;;;4.43;1.70;;;16.30;97.10;15.20;100177;;;;576562;244;24071;-79
2023/10/23 10:02:49;;;;;;;3.73;1.53;;;16.10;98.40;15.00;100172;;;;575148;248;24201;-81
2023/10/23 10:05:27;;;;;;;2.03;1.27;;;15.90;99.50;14.90;100170;;;;563411;249;24084;-80
2023/10/23 10:07:57;;;;;;;3.47;1.63;;;15.80;99.90;14.80;100173;;;;566032;249;24086;-80
2023/10/23 10:10:25;;;;;;;4.67;1.10;;;15.70;99.90;14.70;100174;;;;567346;249;24139;-81
2023/10/23 10:12:52;;;;;;;2.00;1.30;;;15.60;99.90;14.70;100169;;;;563157;249;24115;-80
2023/10/23 10:15:20;;;;;;;1.83;1.50;;;15.60;99.90;14.70;100163;;;;567099;249;24109;-82
2023/10/23 10:17:49;;;;;;;6.67;1.07;;;15.60;99.90;14.80;100162;;;;567007;249;24086;-80
2023/10/23 10:20:16;;;;;;;1.57;1.00;;;15.60;99.90;14.80;100164;;;;563066;249;24118;-80
2023/10/23 10:22:45;;;;;;;2.53;0.83;;;15.60;99.90;14.80;100162;;;;566981;249;24113;-80
2023/10/23 10:25:13;;;;;;;0.83;0.80;;;15.60;99.90;14.80;100163;;;;565582;249;24142;-83
2023/10/23 10:27:41;;;;;;;3.73;1.03;;;15.50;99.90;14.70;100160;;;;575673;247;24200;-81
2023/10/23 10:30:09;;;;;;;1.43;1.07;;;15.50;99.90;14.60;100152;;;;575620;247;25216;-82
2023/10/23 10:32:37;;;;;;;2.97;0.90;;;15.40;99.90;14.60;100154;;;;565633;249;24088;-80
2023/10/23 10:35:07;;;;;;;1.13;0.90;;;15.30;99.90;14.60;100158;;;;567482;249;24128;-81
2023/10/23 10:37:33;;;;;;;1.80;0.83;;;15.30;99.90;14.60;100157;;;;562108;249;24089;-81
2023/10/23 10:40:01;;;;;;;1.77;1.27;;;15.30;99.90;14.80;100156;;;;567468;249;25159;-80
2023/10/23 10:42:29;;;;;;;0.60;0.60;;;15.40;99.90;14.90;100151;;;;567466;249;24113;-80
2023/10/23 10:45:00;;;;;;;2.17;1.07;;;15.50;99.90;15.00;100151;;;;575902;247;24153;-81
2023/10/23 10:47:40;;;;;;;2.17;1.00;;;15.60;99.90;15.10;100159;;;;576094;247;24094;-79
2023/10/23 10:50:07;;;;;;;1.00;0.83;;;15.70;99.90;15.10;100151;;;;569133;248;24208;-80
2023/10/23 10:52:41;;;;;;;4.03;0.80;;;15.70;99.90;15.00;100154;;;;568338;248;24085;-80
2023/10/23 10:55:15;;;;;;;3.37;1.10;;;15.70;99.90;14.80;100148;;;;566813;248;24080;-79
2023/10/23 10:57:46;;;;;;;0.53;0.53;;;15.50;99.90;14.70;100158;;;;568109;248;24093;-77
2023/10/23 11:00:15;;;;;;;0.90;0.90;;;15.40;99.90;14.60;100159;;;;567913;248;24132;-81
2023/10/23 11:02:39;;;;;;;2.50;1.30;;;15.30;99.90;14.60;100155;;;;567072;248;24127;-80
2023/10/23 11:05:11;;;;;;;1.20;0.90;;;15.20;99.90;14.50;100157;;;;577728;246;24090;-81
2023/10/23 11:07:35;;;;;;;1.23;1.00;;;15.20;99.90;14.30;100160;;;;566468;249;24123;-81
2023/10/23 11:10:05;;;;;;;1.43;0.70;;;14.80;99.90;14.10;100159;;;;567217;249;25174;-81
2023/10/23 11:12:32;;;;;;;0.67;0.67;;;14.80;99.90;14.00;100160;;;;567276;249;24097;-80
2023/10/23 11:15:00;;;;;;;1.10;1.03;;;14.70;99.90;14.00;100160;;;;567182;249;24093;-79
2023/10/23 11:17:28;;;;;;;0.80;0.80;;;14.60;99.90;14.00;100160;;;;567717;249;24112;-80
2023/10/23 11:19:58;;;;;;;2.23;1.20;;;14.60;99.90;13.90;100156;;;;567286;249;24182;-82
2023/10/23 11:22:25;;;;;;;3.10;1.07;;;14.60;99.90;14.00;100156;;;;576815;243;24153;-82